Time;durP1;ratioP1;P1;durP2;ratioP2;P2;SDS_P1;SDS_P2;PMS_P1;PMS_P2;Temp;Humidity;BMP_temperature;BMP_pressure;BME280_temperature;BME280_humidity;BME280_pressure;Samples;Min_cycle;Max_cycle;Signal;HPM_P1;HPM_P2
2021/09/19 00:01:29;;;;;;;2.33;1.87;;;13.10;99.90;13.10;100729.00;;;;4979101;28;88345;-65
2021/09/19 00:03:55;;;;;;;2.70;2.00;;;13.10;99.90;13.10;100735.00;;;;4978952;28;88099;-62
2021/09/19 00:06:21;;;;;;;2.63;1.87;;;13.10;99.90;13.10;100735.00;;;;4979470;28;87097;-64
2021/09/19 00:08:46;;;;;;;2.33;1.57;;;13.10;99.90;13.10;100735.00;;;;4977879;28;105536;-64
2021/09/19 00:11:12;;;;;;;4.07;2.13;;;13.10;99.90;13.20;100730.00;;;;4977845;28;117180;-64
2021/09/19 00:13:38;;;;;;;3.47;2.17;;;13.10;99.90;13.20;100738.00;;;;4978120;28;105082;-64
2021/09/19 00:16:05;;;;;;;1.90;1.63;;;13.10;99.90;13.20;100729.00;;;;4978608;28;109001;-64
2021/09/19 00:18:30;;;;;;;2.73;1.50;;;13.30;99.90;13.20;100739.00;;;;4978135;28;100019;-63
2021/09/19 00:20:56;;;;;;;1.97;1.77;;;13.20;99.90;13.20;100737.00;;;;4978741;28;88676;-63
2021/09/19 00:23:22;;;;;;;2.30;1.90;;;13.20;99.90;13.20;100735.00;;;;4976803;28;87854;-64
2021/09/19 00:25:49;;;;;;;3.43;1.77;;;13.20;99.90;13.20;100727.00;;;;4978266;28;108561;-63
2021/09/19 00:28:15;;;;;;;2.83;2.00;;;13.50;99.90;13.10;100735.00;;;;4977886;28;87661;-64
2021/09/19 00:30:40;;;;;;;1.30;1.20;;;13.10;99.90;13.10;100734.00;;;;4978742;28;102880;-63
2021/09/19 00:33:06;;;;;;;2.83;1.67;;;13.30;99.90;13.10;100732.00;;;;4971234;28;87848;-63
2021/09/19 00:35:32;;;;;;;4.47;2.20;;;13.10;99.90;13.00;100734.00;;;;4977599;28;109072;-63
2021/09/19 00:37:58;;;;;;;2.20;1.50;;;13.00;99.90;13.00;100731.00;;;;4977250;28;97874;-63
2021/09/19 00:40:24;;;;;;;3.53;2.03;;;13.00;99.90;13.00;100727.00;;;;4977365;28;118383;-63
2021/09/19 00:42:50;;;;;;;2.27;1.63;;;12.90;99.90;12.90;100732.00;;;;4977995;28;111572;-63
2021/09/19 00:45:19;;;;;;;2.37;1.03;;;12.90;99.90;12.90;100733.00;;;;4977433;28;109372;-63
2021/09/19 00:47:47;;;;;;;2.73;1.63;;;12.90;99.90;12.80;100736.00;;;;4977674;28;88658;-63
2021/09/19 00:50:16;;;;;;;1.53;1.20;;;12.80;99.90;12.80;100737.00;;;;4978373;28;88663;-63
2021/09/19 00:52:45;;;;;;;1.60;1.50;;;12.80;99.90;12.80;100734.00;;;;4978366;28;87766;-64
2021/09/19 00:55:12;;;;;;;2.57;1.43;;;12.80;99.90;12.70;100735.00;;;;4978124;28;87011;-63
2021/09/19 00:57:41;;;;;;;2.20;1.73;;;12.70;99.90;12.70;100722.00;;;;4977035;28;103930;-63
2021/09/19 01:00:08;;;;;;;2.30;1.80;;;12.70;99.90;12.70;100730.00;;;;4978103;28;88818;-64
2021/09/19 01:02:34;;;;;;;6.47;1.80;;;12.60;99.90;12.60;100736.00;;;;4974370;28;91855;-63
2021/09/19 01:05:00;;;;;;;2.67;2.07;;;12.60;99.90;12.60;100729.00;;;;4972856;28;97164;-63
2021/09/19 01:07:26;;;;;;;2.33;1.67;;;12.60;99.90;12.50;100731.00;;;;4977415;28;102249;-63
2021/09/19 01:09:53;;;;;;;1.47;1.20;;;12.50;99.90;12.50;100727.00;;;;4977540;28;100191;-63
2021/09/19 01:12:23;;;;;;;1.90;1.60;;;12.50;99.90;12.50;100730.00;;;;4977367;28;96763;-63
2021/09/19 01:14:50;;;;;;;1.97;1.47;;;12.50;99.90;12.40;100732.00;;;;4978124;28;87524;-63
2021/09/19 01:17:18;;;;;;;1.53;1.37;;;12.40;99.90;12.40;100723.00;;;;4977829;28;88307;-64
2021/09/19 01:19:47;;;;;;;4.17;1.67;;;12.40;99.90;12.40;100729.00;;;;4978034;28;96542;-63
2021/09/19 01:22:14;;;;;;;2.17;1.87;;;12.40;99.90;12.40;100730.00;;;;4978350;28;87761;-63
2021/09/19 01:24:41;;;;;;;1.20;1.10;;;12.40;99.90;12.40;100741.00;;;;4977857;28;87791;-63
2021/09/19 01:27:08;;;;;;;2.67;1.40;;;12.40;99.90;12.40;100744.00;;;;4976934;28;89082;-63
2021/09/19 01:29:34;;;;;;;1.80;1.30;;;12.40;99.90;12.40;100730.00;;;;4977929;28;96571;-66
2021/09/19 01:32:01;;;;;;;1.43;1.33;;;12.40;99.90;12.40;100739.00;;;;4978088;28;87923;-64
2021/09/19 01:34:27;;;;;;;2.17;1.37;;;12.40;99.90;12.40;100740.00;;;;4977474;28;87919;-63
2021/09/19 01:36:53;;;;;;;1.63;1.40;;;12.40;99.90;12.30;100736.00;;;;4976614;28;118185;-64
2021/09/19 01:39:19;;;;;;;1.87;1.30;;;12.40;99.90;12.30;100736.00;;;;4976202;28;117356;-64
2021/09/19 01:41:48;;;;;;;2.27;1.70;;;12.30;99.90;12.30;100736.00;;;;4978091;28;88309;-64
2021/09/19 01:44:13;;;;;;;2.17;1.37;;;12.30;99.90;12.30;100730.00;;;;4977409;28;92494;-64
2021/09/19 01:46:39;;;;;;;2.20;1.40;;;12.30;99.90;12.20;100731.00;;;;4976578;28;117905;-64
2021/09/19 01:49:08;;;;;;;1.87;1.30;;;12.30;99.90;12.20;100727.00;;;;4976189;28;112360;-64
2021/09/19 01:51:34;;;;;;;1.57;1.17;;;12.30;99.90;12.20;100724.00;;;;4976945;28;88593;-64
2021/09/19 01:54:00;;;;;;;3.43;1.20;;;12.20;99.90;12.20;100726.00;;;;4977230;28;94340;-64
2021/09/19 01:56:26;;;;;;;4.23;1.43;;;12.20;99.90;12.20;100723.00;;;;4976019;28;116900;-64
2021/09/19 01:58:55;;;;;;;1.67;1.10;;;12.20;99.90;12.20;100718.00;;;;4976896;28;87829;-64
2021/09/19 02:01:22;;;;;;;2.87;1.90;;;12.20;99.90;12.10;100722.00;;;;4977836;28;87703;-65
2021/09/19 02:03:50;;;;;;;2.57;1.63;;;12.10;99.90;12.10;100719.00;;;;4977389;28;87776;-64
2021/09/19 02:06:16;;;;;;;2.37;1.83;;;12.10;99.90;12.10;100728.00;;;;4975994;28;88397;-64
2021/09/19 02:08:43;;;;;;;1.37;1.20;;;12.10;99.90;12.10;100716.00;;;;4976902;28;99270;-64
2021/09/19 02:11:12;;;;;;;1.93;1.13;;;12.10;99.90;12.10;100728.00;;;;4977657;28;87560;-64
2021/09/19 02:13:39;;;;;;;1.63;1.00;;;12.10;99.90;12.00;100712.00;;;;4977103;28;87623;-64
2021/09/19 02:16:07;;;;;;;2.73;1.40;;;12.10;99.90;12.00;100717.00;;;;4975690;28;98343;-64
2021/09/19 02:18:33;;;;;;;1.10;1.00;;;12.00;99.90;12.00;100716.00;;;;4967620;28;101537;-64
2021/09/19 02:21:00;;;;;;;2.17;1.20;;;12.00;99.90;12.00;100707.00;;;;4959174;28;87870;-64
2021/09/19 02:23:26;;;;;;;1.03;0.93;;;12.00;99.90;12.00;100715.00;;;;4976371;28;90451;-64
2021/09/19 02:25:52;;;;;;;3.13;1.33;;;12.00;99.90;12.00;100709.00;;;;4976365;28;118149;-64
2021/09/19 02:28:19;;;;;;;3.50;2.10;;;12.00;99.90;11.90;100710.00;;;;4975647;28;116730;-64
2021/09/19 02:30:45;;;;;;;1.70;1.30;;;12.00;99.90;11.90;100708.00;;;;4976800;28;87665;-65
2021/09/19 02:33:11;;;;;;;1.77;1.20;;;11.90;99.90;11.90;100704.00;;;;4976970;28;87040;-64
2021/09/19 02:35:37;;;;;;;4.57;1.90;;;11.90;99.90;11.90;100706.00;;;;4976681;28;88330;-63
2021/09/19 02:38:03;;;;;;;2.60;1.17;;;11.90;99.90;11.90;100695.00;;;;4974993;28;116239;-64
2021/09/19 02:40:29;;;;;;;1.60;1.00;;;11.90;99.90;11.90;100715.00;;;;4975711;28;111598;-64
2021/09/19 02:42:56;;;;;;;2.43;1.50;;;11.90;99.90;11.80;100701.00;;;;4967799;28;87722;-63
2021/09/19 02:45:22;;;;;;;2.70;1.53;;;11.80;99.90;11.90;100712.00;;;;4976543;28;88798;-63
2021/09/19 02:47:48;;;;;;;3.33;1.27;;;11.90;99.90;11.80;100714.00;;;;4971295;28;101010;-65
2021/09/19 02:50:25;;;;;;;2.13;1.90;;;11.80;99.90;11.80;100710.00;;;;4972754;28;109849;-64
2021/09/19 02:52:52;;;;;;;1.37;1.20;;;11.80;99.90;11.80;100702.00;;;;4976645;28;87838;-65
2021/09/19 02:55:21;;;;;;;1.40;1.30;;;11.80;99.90;11.80;100700.00;;;;4976446;28;90145;-64
2021/09/19 02:57:47;;;;;;;3.40;1.47;;;11.80;99.90;11.80;100704.00;;;;4971583;28;88395;-64
2021/09/19 03:00:17;;;;;;;1.70;1.37;;;11.80;99.90;11.80;100704.00;;;;4973786;28;87791;-64
2021/09/19 03:02:44;;;;;;;2.23;1.17;;;11.80;99.90;11.80;100705.00;;;;4974456;28;87816;-64
2021/09/19 03:05:11;;;;;;;5.00;1.40;;;11.80;99.90;11.80;100698.00;;;;4976566;28;89235;-62
2021/09/19 03:07:37;;;;;;;2.47;1.60;;;11.80;99.90;11.80;100704.00;;;;4975342;28;93442;-63
2021/09/19 03:10:06;;;;;;;2.43;1.87;;;11.80;99.90;11.80;100692.00;;;;4975438;28;110497;-63
2021/09/19 03:12:31;;;;;;;2.93;1.10;;;11.80;99.90;11.80;100696.00;;;;4976087;28;87887;-63
2021/09/19 03:14:57;;;;;;;4.17;1.67;;;11.80;99.90;11.80;100709.00;;;;4974993;28;117632;-63
2021/09/19 03:17:23;;;;;;;7.23;1.50;;;11.80;99.90;11.70;100709.00;;;;4975607;28;93826;-63
2021/09/19 03:19:48;;;;;;;1.63;1.33;;;11.80;99.90;11.70;100702.00;;;;4975092;28;110591;-63
2021/09/19 03:22:14;;;;;;;2.33;1.07;;;11.80;99.90;11.70;100708.00;;;;4976457;28;87099;-63
2021/09/19 03:24:40;;;;;;;2.30;1.53;;;11.70;99.90;11.70;100705.00;;;;4975738;28;95512;-64
2021/09/19 03:27:06;;;;;;;1.70;1.37;;;11.70;99.90;11.60;100710.00;;;;4975524;28;116362;-63
2021/09/19 03:29:31;;;;;;;2.07;1.77;;;11.70;99.90;11.60;100704.00;;;;4974144;28;109630;-64
2021/09/19 03:31:57;;;;;;;1.97;1.57;;;11.70;99.90;11.60;100709.00;;;;4975769;28;108818;-63
2021/09/19 03:34:23;;;;;;;2.73;1.53;;;11.60;99.90;11.60;100704.00;;;;4974788;28;116663;-63
2021/09/19 03:36:49;;;;;;;1.57;1.30;;;11.60;99.90;11.60;100707.00;;;;4974677;28;117662;-63
2021/09/19 03:39:16;;;;;;;3.47;1.77;;;11.60;99.90;11.50;100707.00;;;;4974793;28;87669;-64
2021/09/19 03:41:41;;;;;;;2.00;1.57;;;11.50;99.90;11.50;100703.00;;;;4976603;28;87822;-63
2021/09/19 03:44:09;;;;;;;2.03;1.43;;;11.60;99.90;11.50;100700.00;;;;4974581;28;117772;-64
2021/09/19 03:46:35;;;;;;;2.73;1.83;;;11.50;99.90;11.50;100708.00;;;;4976694;28;88011;-64
2021/09/19 03:49:01;;;;;;;2.73;1.57;;;11.50;99.90;11.50;100702.00;;;;4975115;28;101396;-64
2021/09/19 03:51:26;;;;;;;2.40;1.30;;;11.50;99.90;11.50;100713.00;;;;4972706;28;109378;-63
2021/09/19 03:53:52;;;;;;;3.27;1.43;;;11.50;99.90;11.50;100715.00;;;;4973598;28;119335;-63
2021/09/19 03:56:19;;;;;;;1.67;1.27;;;11.50;99.90;11.60;100715.00;;;;4974434;28;117674;-65
2021/09/19 03:58:45;;;;;;;5.07;1.60;;;11.60;99.90;11.60;100723.00;;;;4974887;28;87723;-64
2021/09/19 04:01:11;;;;;;;2.70;1.80;;;11.60;99.90;11.60;100713.00;;;;4975731;28;87841;-65
2021/09/19 04:03:36;;;;;;;2.20;1.47;;;11.60;99.90;11.60;100716.00;;;;4974888;28;88189;-63
2021/09/19 04:06:02;;;;;;;2.83;1.90;;;11.60;99.90;11.60;100716.00;;;;4974089;28;100848;-63
2021/09/19 04:08:28;;;;;;;1.87;1.77;;;11.60;99.90;11.60;100719.00;;;;4973729;28;101771;-63
2021/09/19 04:10:54;;;;;;;4.23;1.50;;;11.60;99.90;11.60;100726.00;;;;4975557;28;108773;-63
2021/09/19 04:13:19;;;;;;;1.60;1.30;;;11.60;99.90;11.60;100728.00;;;;4972085;28;110428;-64
2021/09/19 04:15:45;;;;;;;5.97;2.03;;;11.60;99.90;11.70;100726.00;;;;4974013;28;117522;-65
2021/09/19 04:18:11;;;;;;;2.90;1.73;;;11.70;99.90;11.70;100725.00;;;;4973780;28;110622;-63
2021/09/19 04:20:36;;;;;;;3.40;1.70;;;11.60;99.90;11.70;100722.00;;;;4975356;28;87574;-64
2021/09/19 04:23:02;;;;;;;3.90;1.83;;;11.70;99.90;11.70;100727.00;;;;4974445;28;93350;-64
2021/09/19 04:25:28;;;;;;;1.77;1.40;;;11.60;99.90;11.70;100725.00;;;;4974267;28;117437;-64
2021/09/19 04:27:54;;;;;;;3.70;2.00;;;11.70;99.90;11.70;100738.00;;;;4974607;28;98148;-64
2021/09/19 04:30:19;;;;;;;3.30;1.50;;;11.70;99.90;11.70;100723.00;;;;4977261;28;109696;-64
2021/09/19 04:32:45;;;;;;;2.47;1.80;;;11.70;99.90;11.70;100722.00;;;;4977226;28;119217;-64
2021/09/19 04:35:11;;;;;;;2.30;1.70;;;11.70;99.90;11.70;100729.00;;;;4977988;28;118807;-64
2021/09/19 04:37:37;;;;;;;2.43;1.40;;;11.70;99.90;11.70;100733.00;;;;4977840;28;87612;-64
2021/09/19 04:40:06;;;;;;;1.93;1.53;;;11.90;99.90;11.70;100736.00;;;;4977902;28;108830;-63
2021/09/19 04:42:32;;;;;;;2.67;1.80;;;11.70;99.90;11.70;100731.00;;;;4958671;28;103405;-64
2021/09/19 04:44:58;;;;;;;2.80;1.63;;;11.70;99.90;11.70;100739.00;;;;4977948;28;100742;-64
2021/09/19 04:47:23;;;;;;;3.80;1.37;;;11.70;99.90;11.70;100734.00;;;;4977805;28;101778;-63
2021/09/19 04:49:49;;;;;;;2.83;1.63;;;11.60;99.90;11.70;100739.00;;;;4977448;28;108976;-64
2021/09/19 04:52:15;;;;;;;2.43;1.30;;;11.70;99.90;11.70;100739.00;;;;4978060;28;117535;-64
2021/09/19 04:54:40;;;;;;;5.43;2.00;;;11.60;99.90;11.70;100730.00;;;;4976858;28;118371;-63
2021/09/19 04:57:06;;;;;;;2.13;1.43;;;11.60;99.90;11.70;100738.00;;;;4977838;28;102865;-64
2021/09/19 04:59:32;;;;;;;3.70;2.00;;;11.70;99.90;11.70;100740.00;;;;4977485;28;86914;-64
2021/09/19 05:01:57;;;;;;;2.27;1.50;;;11.70;99.90;11.70;100737.00;;;;4977994;28;87919;-64
2021/09/19 05:04:23;;;;;;;3.27;1.60;;;11.60;99.90;11.60;100740.00;;;;4976935;28;116337;-64
2021/09/19 05:06:49;;;;;;;3.03;1.93;;;11.60;99.90;11.70;100744.00;;;;4976898;28;110161;-64
2021/09/19 05:09:15;;;;;;;3.33;1.73;;;11.60;99.90;11.70;100743.00;;;;4968853;28;105699;-65
2021/09/19 05:11:40;;;;;;;2.67;1.50;;;11.70;99.90;11.70;100748.00;;;;4977811;28;87777;-64
2021/09/19 05:14:06;;;;;;;1.90;1.57;;;11.60;99.90;11.70;100743.00;;;;4977013;28;100876;-64
2021/09/19 05:16:32;;;;;;;6.50;1.80;;;11.70;99.90;11.70;100744.00;;;;4976743;28;110716;-64
2021/09/19 05:18:58;;;;;;;1.87;1.47;;;11.60;99.90;11.70;100743.00;;;;4977710;28;87838;-64
2021/09/19 05:21:25;;;;;;;2.40;1.37;;;11.70;99.90;11.70;100738.00;;;;4977435;28;98300;-63
2021/09/19 05:23:51;;;;;;;1.93;1.40;;;11.70;99.90;11.70;100746.00;;;;4977624;28;87985;-62
2021/09/19 05:26:16;;;;;;;2.27;1.63;;;11.70;99.90;11.70;100740.00;;;;4977651;28;87569;-62
2021/09/19 05:28:42;;;;;;;2.50;1.80;;;11.70;99.90;11.70;100749.00;;;;4976562;28;107839;-62
2021/09/19 05:31:08;;;;;;;1.97;1.70;;;11.70;99.90;11.70;100732.00;;;;4977762;28;88887;-62
2021/09/19 05:33:34;;;;;;;2.87;1.30;;;11.70;99.90;11.70;100739.00;;;;4979342;28;87729;-62
2021/09/19 05:36:00;;;;;;;4.67;1.23;;;11.70;99.90;11.70;100742.00;;;;4976973;28;110784;-62
2021/09/19 05:38:26;;;;;;;2.60;1.60;;;11.70;99.90;11.70;100736.00;;;;4976331;28;105441;-62
2021/09/19 05:40:51;;;;;;;1.70;1.60;;;11.70;99.90;11.70;100728.00;;;;4976345;28;88154;-62
2021/09/19 05:43:17;;;;;;;2.27;1.30;;;11.80;99.90;11.80;100730.00;;;;4976558;28;100935;-62
2021/09/19 05:45:43;;;;;;;2.70;2.00;;;11.80;99.90;11.80;100738.00;;;;4977538;28;87640;-63
2021/09/19 05:48:09;;;;;;;2.10;1.47;;;11.80;99.90;11.80;100740.00;;;;4976437;28;108235;-63
2021/09/19 05:50:35;;;;;;;4.33;1.90;;;11.80;99.90;11.80;100734.00;;;;4975858;28;116710;-63
2021/09/19 05:53:00;;;;;;;1.90;1.20;;;11.80;99.90;11.80;100739.00;;;;4975519;28;118274;-63
2021/09/19 05:55:26;;;;;;;3.50;2.27;;;11.80;99.90;11.80;100738.00;;;;4975713;28;111639;-62
2021/09/19 05:57:52;;;;;;;4.03;1.67;;;11.80;99.90;11.80;100732.00;;;;4976870;28;87751;-62
2021/09/19 06:00:18;;;;;;;2.70;1.87;;;11.80;99.90;11.90;100737.00;;;;4976195;28;111317;-62
2021/09/19 06:02:44;;;;;;;2.90;2.00;;;11.80;99.90;11.90;100730.00;;;;4957068;28;116087;-63
2021/09/19 06:05:10;;;;;;;5.63;1.87;;;11.90;99.90;11.90;100744.00;;;;4957769;28;110298;-63
2021/09/19 06:07:37;;;;;;;2.60;2.13;;;11.90;99.90;11.90;100736.00;;;;4977532;28;87639;-63
2021/09/19 06:10:05;;;;;;;3.40;2.23;;;11.90;99.90;12.00;100741.00;;;;4978761;28;88245;-63
2021/09/19 06:12:31;;;;;;;8.53;3.03;;;12.00;99.90;12.00;100739.00;;;;4976751;28;88411;-63
2021/09/19 06:14:56;;;;;;;6.73;2.90;;;12.00;99.90;12.10;100737.00;;;;4976291;28;97241;-64
2021/09/19 06:17:22;;;;;;;7.03;2.33;;;12.00;99.90;12.10;100734.00;;;;4976371;28;88201;-63
2021/09/19 06:19:49;;;;;;;2.83;1.83;;;12.00;99.90;12.10;100728.00;;;;4973131;28;119319;-63
2021/09/19 06:22:15;;;;;;;1.90;1.63;;;12.10;99.90;12.20;100738.00;;;;4987151;28;102453;-63
2021/09/19 06:24:41;;;;;;;1.73;1.50;;;12.10;99.90;12.20;100735.00;;;;4991825;28;88635;-63
2021/09/19 06:27:08;;;;;;;1.93;1.67;;;12.20;99.90;12.30;100741.00;;;;4993738;28;87907;-63
2021/09/19 06:29:34;;;;;;;3.10;1.90;;;12.20;99.90;12.30;100736.00;;;;4993624;28;88986;-63
2021/09/19 06:32:00;;;;;;;2.83;1.83;;;12.20;99.90;12.40;100734.00;;;;4987242;28;116803;-63
2021/09/19 06:34:26;;;;;;;2.23;1.97;;;12.30;99.90;12.40;100740.00;;;;4978204;27;110670;-63
2021/09/19 06:36:52;;;;;;;3.00;1.37;;;12.40;99.90;12.40;100732.00;;;;4984433;28;87025;-63
2021/09/19 06:39:17;;;;;;;2.70;1.30;;;12.40;99.90;12.50;100743.00;;;;4981069;28;88265;-63
2021/09/19 06:41:43;;;;;;;1.30;1.17;;;12.40;99.90;12.50;100734.00;;;;4975725;28;90268;-63
2021/09/19 06:44:09;;;;;;;1.87;1.60;;;12.50;99.90;12.60;100743.00;;;;4984067;28;110807;-63
2021/09/19 06:46:34;;;;;;;3.70;1.60;;;12.50;99.90;12.60;100742.00;;;;4990828;28;87804;-63
2021/09/19 06:49:02;;;;;;;1.50;1.30;;;12.50;99.90;12.60;100735.00;;;;4986777;27;114309;-63
2021/09/19 06:51:28;;;;;;;1.53;1.43;;;12.60;99.90;12.70;100745.00;;;;4989744;28;88526;-63
2021/09/19 06:53:54;;;;;;;1.47;1.20;;;12.60;99.90;12.70;100745.00;;;;4985475;28;87873;-63
2021/09/19 06:56:21;;;;;;;2.87;1.43;;;12.70;99.90;12.70;100746.00;;;;4986027;28;87764;-63
2021/09/19 06:58:48;;;;;;;1.63;1.20;;;12.70;99.90;12.80;100738.00;;;;4992386;27;88748;-63
2021/09/19 07:01:15;;;;;;;3.13;1.70;;;12.70;99.90;12.80;100735.00;;;;4982800;28;88516;-63
2021/09/19 07:03:44;;;;;;;1.93;1.63;;;12.80;99.90;12.90;100739.00;;;;4980400;28;88122;-64
2021/09/19 07:06:10;;;;;;;2.20;1.67;;;12.80;99.90;12.90;100737.00;;;;4983251;28;92531;-63
2021/09/19 07:08:35;;;;;;;2.53;1.50;;;12.80;99.90;12.90;100736.00;;;;4988610;28;117060;-63
2021/09/19 07:11:02;;;;;;;1.77;1.20;;;12.90;99.90;13.00;100732.00;;;;4983283;28;118379;-63
2021/09/19 07:13:27;;;;;;;1.93;1.13;;;12.90;99.90;13.00;100741.00;;;;4991914;28;110379;-63
2021/09/19 07:15:53;;;;;;;2.97;1.67;;;12.90;99.90;13.00;100736.00;;;;4992847;28;107733;-62
2021/09/19 07:18:20;;;;;;;1.57;1.17;;;12.90;99.90;13.10;100733.00;;;;4993292;28;88445;-62
2021/09/19 07:20:47;;;;;;;1.37;1.10;;;13.00;99.90;13.10;100733.00;;;;4967217;28;88042;-64
2021/09/19 07:23:12;;;;;;;1.27;1.17;;;13.10;99.90;13.20;100734.00;;;;4973573;28;87812;-62
2021/09/19 07:25:38;;;;;;;1.30;1.03;;;13.10;99.90;13.20;100741.00;;;;4993906;28;87045;-63
2021/09/19 07:28:06;;;;;;;6.90;1.40;;;13.10;99.90;13.30;100738.00;;;;4991462;27;116171;-63
2021/09/19 07:30:32;;;;;;;2.47;1.70;;;13.20;99.90;13.30;100738.00;;;;4992825;28;88489;-63
2021/09/19 07:32:59;;;;;;;1.67;1.37;;;13.20;99.90;13.40;100733.00;;;;4991479;28;95954;-63
2021/09/19 07:35:26;;;;;;;1.60;1.13;;;13.30;99.90;13.40;100737.00;;;;4992666;28;87625;-63
2021/09/19 07:37:52;;;;;;;3.60;1.77;;;13.30;99.90;13.50;100740.00;;;;4992246;27;92155;-63
2021/09/19 07:40:18;;;;;;;1.37;1.10;;;13.40;99.70;13.50;100741.00;;;;4992894;28;88877;-63
2021/09/19 07:42:44;;;;;;;1.23;0.97;;;13.40;99.10;13.60;100742.00;;;;4984823;28;88070;-63
2021/09/19 07:45:11;;;;;;;1.70;1.17;;;13.50;99.20;13.60;100741.00;;;;4993007;28;87626;-64
2021/09/19 07:47:37;;;;;;;2.67;1.40;;;13.50;99.50;13.70;100742.00;;;;4988554;28;89356;-63
2021/09/19 07:50:04;;;;;;;1.53;1.43;;;13.60;99.90;13.80;100735.00;;;;4988053;28;88793;-64
2021/09/19 07:52:30;;;;;;;2.87;1.67;;;13.70;99.90;13.90;100742.00;;;;4992283;28;87638;-64
2021/09/19 07:54:55;;;;;;;1.43;1.27;;;13.70;99.70;13.90;100745.00;;;;4992342;28;94034;-63
2021/09/19 07:57:23;;;;;;;1.27;0.93;;;13.80;98.40;14.00;100751.00;;;;4991344;28;93131;-63
2021/09/19 07:59:53;;;;;;;2.23;1.57;;;13.80;99.10;14.00;100751.00;;;;4984134;27;92442;-64
2021/09/19 08:02:20;;;;;;;1.43;1.17;;;13.90;99.30;14.10;100758.00;;;;4986203;28;87846;-64
2021/09/19 08:04:47;;;;;;;2.23;1.20;;;14.00;99.40;14.30;100760.00;;;;4990931;28;87837;-64
2021/09/19 08:07:13;;;;;;;2.13;1.40;;;14.10;99.30;14.40;100750.00;;;;4991396;28;118726;-63
2021/09/19 08:09:38;;;;;;;2.33;1.47;;;14.20;99.20;14.40;100762.00;;;;4995130;27;89181;-64
2021/09/19 08:12:05;;;;;;;1.37;1.27;;;14.30;97.90;14.50;100765.00;;;;4995913;28;90842;-64
2021/09/19 08:14:31;;;;;;;3.23;1.17;;;14.40;97.40;14.60;100766.00;;;;4995851;27;89773;-64
2021/09/19 08:16:57;;;;;;;3.83;2.00;;;14.40;96.50;14.70;100767.00;;;;4994789;28;117891;-64
2021/09/19 08:19:24;;;;;;;2.43;1.50;;;14.50;96.40;14.70;100770.00;;;;4994874;27;87974;-64
2021/09/19 08:21:50;;;;;;;4.63;1.70;;;14.60;96.20;14.80;100777.00;;;;4993476;28;88737;-64
2021/09/19 08:24:16;;;;;;;3.10;1.73;;;14.70;95.80;14.90;100776.00;;;;4994555;27;108101;-65
2021/09/19 08:26:42;;;;;;;2.37;1.23;;;14.70;95.90;15.00;100771.00;;;;4995478;28;88932;-64
2021/09/19 08:29:09;;;;;;;8.97;5.10;;;14.80;95.30;15.00;100769.00;;;;4997011;27;87599;-64
2021/09/19 08:31:37;;;;;;;3.53;2.47;;;14.90;94.20;15.00;100774.00;;;;4994949;28;92816;-64
2021/09/19 08:34:06;;;;;;;3.70;1.90;;;15.20;93.90;15.10;100784.00;;;;4994985;28;87842;-64
2021/09/19 08:36:33;;;;;;;1.73;1.50;;;14.90;93.10;15.10;100790.00;;;;4994144;28;103608;-64
2021/09/19 08:38:59;;;;;;;1.60;1.50;;;14.90;92.00;15.00;100780.00;;;;4994692;27;87649;-65
2021/09/19 08:41:25;;;;;;;2.63;1.57;;;14.90;92.40;15.10;100787.00;;;;4986846;28;111542;-64
2021/09/19 08:43:52;;;;;;;4.00;1.90;;;14.90;93.10;15.10;100794.00;;;;4994102;27;108041;-64
2021/09/19 08:46:21;;;;;;;2.37;1.57;;;15.00;92.90;15.20;100792.00;;;;4987590;28;119879;-64
2021/09/19 08:48:48;;;;;;;3.00;1.33;;;15.00;93.10;15.30;100792.00;;;;4993299;28;88877;-63
2021/09/19 08:51:14;;;;;;;2.05;1.50;;;15.10;93.30;15.40;100783.00;;;;4988116;28;87576;-64
2021/09/19 08:53:40;;;;;;;2.95;1.30;;;15.20;93.20;15.50;100790.00;;;;4994299;27;94525;-64
2021/09/19 08:56:07;;;;;;;2.03;1.30;;;15.30;92.60;15.60;100783.00;;;;4987433;28;88431;-63
2021/09/19 08:58:33;;;;;;;1.13;1.02;;;15.40;92.70;15.70;100777.00;;;;4993722;28;88899;-63
2021/09/19 09:01:01;;;;;;;2.20;1.48;;;15.50;92.50;15.90;100793.00;;;;4994631;28;87710;-64
2021/09/19 09:03:30;;;;;;;2.00;1.30;;;15.70;92.20;16.00;100785.00;;;;4987145;28;87041;-65
2021/09/19 09:06:03;;;;;;;1.48;1.38;;;15.90;91.50;16.00;100788.00;;;;4994461;28;88288;-66
2021/09/19 09:08:31;;;;;;;3.40;1.48;;;15.80;91.00;16.10;100786.00;;;;4968749;28;87722;-67
2021/09/19 09:11:00;;;;;;;1.52;1.10;;;15.90;90.80;16.20;100787.00;;;;4975963;28;88729;-67
2021/09/19 09:13:33;;;;;;;1.83;1.42;;;16.00;90.30;16.30;100791.00;;;;4994546;28;92206;-67
2021/09/19 09:16:09;;;;;;;2.03;1.63;;;16.10;86.30;16.40;100786.00;;;;4986631;27;88815;-66
2021/09/19 09:18:54;;;;;;;1.67;1.27;;;16.20;88.40;16.50;100795.00;;;;4993596;27;88445;-66
2021/09/19 09:21:24;;;;;;;3.58;1.52;;;16.30;88.00;16.60;100792.00;;;;4994318;28;87873;-66
2021/09/19 09:24:01;;;;;;;2.10;1.27;;;16.40;88.10;16.80;100788.00;;;;4974460;27;87661;-67
2021/09/19 09:26:32;;;;;;;2.75;1.60;;;16.50;84.60;17.20;100780.00;;;;4988831;28;90784;-67
2021/09/19 09:29:09;;;;;;;1.20;0.95;;;16.80;85.90;17.50;100785.00;;;;4965707;28;87947;-67
2021/09/19 09:31:39;;;;;;;1.08;1.02;;;17.20;82.60;17.80;100779.00;;;;4993847;28;94146;-67
2021/09/19 09:34:04;;;;;;;1.65;1.30;;;17.50;79.10;18.00;100779.00;;;;4994454;27;87649;-67
2021/09/19 09:36:36;;;;;;;1.88;1.52;;;17.70;73.30;18.00;100778.00;;;;4993633;28;89034;-67
2021/09/19 09:39:37;;;;;;;2.47;1.23;;;17.70;69.10;17.90;100776.00;;;;4993835;28;89093;-67
2021/09/19 09:42:21;;;;;;;1.20;1.05;;;17.70;63.70;17.80;100786.00;;;;4956361;28;88241;-67
2021/09/19 09:44:52;;;;;;;2.17;1.60;;;17.60;66.20;17.80;100782.00;;;;4992622;27;87762;-66
2021/09/19 09:47:29;;;;;;;2.25;1.40;;;17.50;69.10;17.90;100785.00;;;;4992671;28;90061;-66
2021/09/19 09:50:00;;;;;;;1.20;1.10;;;17.60;69.70;17.90;100776.00;;;;4970660;28;88784;-66
2021/09/19 09:52:28;;;;;;;3.17;1.45;;;17.70;62.00;17.90;100782.00;;;;4992856;28;92401;-67
2021/09/19 09:54:58;;;;;;;1.08;0.82;;;17.60;63.30;17.80;100774.00;;;;4994042;28;86825;-67
2021/09/19 09:57:36;;;;;;;1.25;1.00;;;17.60;59.90;17.90;100769.00;;;;4993918;28;88093;-66
2021/09/19 10:00:14;;;;;;;1.85;1.38;;;17.60;62.50;18.00;100775.00;;;;4993047;28;88028;-67
2021/09/19 10:02:45;;;;;;;1.38;1.13;;;17.70;64.80;18.10;100769.00;;;;4974187;27;88737;-67
2021/09/19 10:05:13;;;;;;;3.95;1.17;;;17.80;65.70;18.00;100775.00;;;;4993553;28;87746;-67
2021/09/19 10:07:42;;;;;;;1.35;1.23;;;17.80;59.00;17.70;100789.00;;;;4957391;27;96024;-67
2021/09/19 10:10:12;;;;;;;0.60;0.60;;;17.60;57.40;17.40;100776.00;;;;4990679;28;88400;-68
2021/09/19 10:12:37;;;;;;;2.03;1.23;;;17.30;58.40;17.30;100773.00;;;;4984408;28;88110;-67
2021/09/19 10:15:06;;;;;;;1.15;1.00;;;17.20;58.90;17.20;100782.00;;;;4988963;28;87712;-65
2021/09/19 10:17:32;;;;;;;1.00;0.85;;;17.10;60.60;17.20;100776.00;;;;4989775;28;88284;-66
2021/09/19 10:20:00;;;;;;;1.10;0.80;;;17.00;60.20;17.10;100784.00;;;;4993586;28;89506;-66
2021/09/19 10:22:55;;;;;;;1.35;0.68;;;16.90;61.50;17.10;100778.00;;;;4974546;28;92885;-68
2021/09/19 10:25:42;;;;;;;1.60;0.77;;;16.90;61.40;17.00;100775.00;;;;4993291;28;87552;-67
2021/09/19 10:28:42;;;;;;;1.30;1.10;;;16.80;60.30;16.80;100776.00;;;;4979134;28;88976;-67
2021/09/19 10:31:18;;;;;;;3.50;1.27;;;16.70;59.70;16.80;100773.00;;;;4947966;28;88237;-67
2021/09/19 10:34:03;;;;;;;1.15;0.98;;;16.60;60.90;16.80;100782.00;;;;4993004;28;89978;-67
2021/09/19 10:36:52;;;;;;;1.27;0.88;;;16.60;62.80;16.80;100770.00;;;;4974782;28;87626;-68
2021/09/19 10:39:38;;;;;;;1.70;0.88;;;16.60;63.80;17.00;100769.00;;;;4987243;27;88190;-68
2021/09/19 10:42:27;;;;;;;1.65;1.05;;;16.70;63.90;17.00;100783.00;;;;4975168;28;87970;-67
2021/09/19 10:45:07;;;;;;;2.83;1.23;;;16.80;63.00;17.10;100770.00;;;;4965669;28;87776;-68
2021/09/19 10:47:46;;;;;;;1.08;0.88;;;16.80;63.00;17.10;100770.00;;;;4975051;28;87284;-68